sensor_id;sensor_type;location;lat;lon;timestamp;temperature;humidity
13673;DHT22;6909;52.202;9.876;2022-12-07T00:00:12;3.50;99.90
13673;DHT22;6909;52.202;9.876;2022-12-07T00:02:39;3.50;99.90
13673;DHT22;6909;52.202;9.876;2022-12-07T00:05:07;3.50;99.90
13673;DHT22;6909;52.202;9.876;2022-12-07T00:07:34;3.60;99.90
13673;DHT22;6909;52.202;9.876;2022-12-07T00:10:02;3.50;99.90
13673;DHT22;6909;52.202;9.876;2022-12-07T00:12:29;3.60;99.90
13673;DHT22;6909;52.202;9.876;2022-12-07T00:14:55;3.60;99.90
13673;DHT22;6909;52.202;9.876;2022-12-07T00:17:22;3.60;99.90
13673;DHT22;6909;52.202;9.876;2022-12-07T00:19:49;3.70;99.90
13673;DHT22;6909;52.202;9.876;2022-12-07T00:22:15;3.70;99.90
13673;DHT22;6909;52.202;9.876;2022-12-07T00:24:42;3.70;99.90
13673;DHT22;6909;52.202;9.876;2022-12-07T00:27:10;3.70;99.90
13673;DHT22;6909;52.202;9.876;2022-12-07T00:29:37;3.70;99.90
13673;DHT22;6909;52.202;9.876;2022-12-07T00:32:04;3.80;99.90
13673;DHT22;6909;52.202;9.876;2022-12-07T00:34:30;3.80;99.90
13673;DHT22;6909;52.202;9.876;2022-12-07T00:36:57;3.80;99.90
13673;DHT22;6909;52.202;9.876;2022-12-07T00:39:24;3.90;99.90
13673;DHT22;6909;52.202;9.876;2022-12-07T00:41:50;3.90;99.90
13673;DHT22;6909;52.202;9.876;2022-12-07T00:44:18;3.80;99.90
13673;DHT22;6909;52.202;9.876;2022-12-07T00:46:45;3.80;99.90
13673;DHT22;6909;52.202;9.876;2022-12-07T00:49:12;3.80;99.90
13673;DHT22;6909;52.202;9.876;2022-12-07T00:51:38;3.80;99.90
13673;DHT22;6909;52.202;9.876;2022-12-07T00:54:05;3.80;99.90
13673;DHT22;6909;52.202;9.876;2022-12-07T00:56:32;3.90;99.90
13673;DHT22;6909;52.202;9.876;2022-12-07T00:59:00;3.80;99.90
13673;DHT22;6909;52.202;9.876;2022-12-07T01:01:30;3.80;99.90
13673;DHT22;6909;52.202;9.876;2022-12-07T01:03:57;3.80;99.90
13673;DHT22;6909;52.202;9.876;2022-12-07T01:06:26;3.80;99.90
13673;DHT22;6909;52.202;9.876;2022-12-07T01:08:53;3.80;99.90
13673;DHT22;6909;52.202;9.876;2022-12-07T01:11:22;3.80;99.90
13673;DHT22;6909;52.202;9.876;2022-12-07T01:13:50;3.80;99.90
13673;DHT22;6909;52.202;9.876;2022-12-07T01:16:18;3.80;99.90
13673;DHT22;6909;52.202;9.876;2022-12-07T01:18:48;3.80;99.90
13673;DHT22;6909;52.202;9.876;2022-12-07T01:21:16;3.80;99.90
13673;DHT22;6909;52.202;9.876;2022-12-07T01:23:43;3.80;99.90
13673;DHT22;6909;52.202;9.876;2022-12-07T01:26:12;3.90;99.90
13673;DHT22;6909;52.202;9.876;2022-12-07T01:28:39;3.80;99.90
13673;DHT22;6909;52.202;9.876;2022-12-07T01:31:07;3.90;99.90
13673;DHT22;6909;52.202;9.876;2022-12-07T01:33:36;3.80;99.90
13673;DHT22;6909;52.202;9.876;2022-12-07T01:36:06;3.80;99.90
13673;DHT22;6909;52.202;9.876;2022-12-07T01:38:34;3.80;99.90
13673;DHT22;6909;52.202;9.876;2022-12-07T01:41:01;3.90;99.90
13673;DHT22;6909;52.202;9.876;2022-12-07T01:43:30;3.90;99.90
13673;DHT22;6909;52.202;9.876;2022-12-07T01:45:57;3.90;99.90
13673;DHT22;6909;52.202;9.876;2022-12-07T01:48:27;3.90;99.90
13673;DHT22;6909;52.202;9.876;2022-12-07T01:50:57;3.90;99.90
13673;DHT22;6909;52.202;9.876;2022-12-07T01:53:28;3.90;99.90
13673;DHT22;6909;52.202;9.876;2022-12-07T01:55:59;3.90;99.90
13673;DHT22;6909;52.202;9.876;2022-12-07T01:58:26;4.00;99.90
13673;DHT22;6909;52.202;9.876;2022-12-07T02:00:53;4.00;99.90
13673;DHT22;6909;52.202;9.876;2022-12-07T02:03:23;4.00;99.90
13673;DHT22;6909;52.202;9.876;2022-12-07T02:05:51;4.00;99.90
13673;DHT22;6909;52.202;9.876;2022-12-07T02:08:20;4.10;99.90
13673;DHT22;6909;52.202;9.876;2022-12-07T02:10:48;4.00;99.90
13673;DHT22;6909;52.202;9.876;2022-12-07T02:13:18;4.10;99.90
13673;DHT22;6909;52.202;9.876;2022-12-07T02:16:05;4.20;99.90
13673;DHT22;6909;52.202;9.876;2022-12-07T02:18:44;4.20;99.90
13673;DHT22;6909;52.202;9.876;2022-12-07T02:21:18;4.10;99.90
13673;DHT22;6909;52.202;9.876;2022-12-07T02:24:15;4.10;99.90
13673;DHT22;6909;52.202;9.876;2022-12-07T02:27:13;4.20;99.90
13673;DHT22;6909;52.202;9.876;2022-12-07T02:29:54;4.10;99.90
13673;DHT22;6909;52.202;9.876;2022-12-07T02:32:27;4.10;99.90
13673;DHT22;6909;52.202;9.876;2022-12-07T02:35:04;4.20;99.90
13673;DHT22;6909;52.202;9.876;2022-12-07T02:37:35;4.10;99.90
13673;DHT22;6909;52.202;9.876;2022-12-07T02:40:08;4.00;99.90
13673;DHT22;6909;52.202;9.876;2022-12-07T02:42:40;4.00;99.90
13673;DHT22;6909;52.202;9.876;2022-12-07T02:45:10;3.90;99.90
13673;DHT22;6909;52.202;9.876;2022-12-07T02:47:40;3.80;99.90
13673;DHT22;6909;52.202;9.876;2022-12-07T02:50:08;3.80;99.90
13673;DHT22;6909;52.202;9.876;2022-12-07T02:52:35;3.70;99.90
13673;DHT22;6909;52.202;9.876;2022-12-07T02:55:02;3.70;99.90
13673;DHT22;6909;52.202;9.876;2022-12-07T02:57:42;3.60;99.90
13673;DHT22;6909;52.202;9.876;2022-12-07T03:00:15;3.50;99.90
13673;DHT22;6909;52.202;9.876;2022-12-07T03:02:51;3.40;99.90
13673;DHT22;6909;52.202;9.876;2022-12-07T03:05:43;3.30;99.90
13673;DHT22;6909;52.202;9.876;2022-12-07T03:08:21;3.20;99.90
13673;DHT22;6909;52.202;9.876;2022-12-07T03:10:56;3.20;99.90
13673;DHT22;6909;52.202;9.876;2022-12-07T03:13:32;3.10;99.90
13673;DHT22;6909;52.202;9.876;2022-12-07T03:16:06;3.10;99.90
13673;DHT22;6909;52.202;9.876;2022-12-07T03:18:38;3.10;99.90
13673;DHT22;6909;52.202;9.876;2022-12-07T03:21:15;3.00;99.90
13673;DHT22;6909;52.202;9.876;2022-12-07T03:23:45;3.00;99.90
13673;DHT22;6909;52.202;9.876;2022-12-07T03:26:16;3.00;99.90
13673;DHT22;6909;52.202;9.876;2022-12-07T03:28:47;3.10;99.90
13673;DHT22;6909;52.202;9.876;2022-12-07T03:31:19;3.00;99.90
13673;DHT22;6909;52.202;9.876;2022-12-07T03:33:54;3.00;99.90
13673;DHT22;6909;52.202;9.876;2022-12-07T03:36:26;3.00;99.90
13673;DHT22;6909;52.202;9.876;2022-12-07T03:38:58;3.00;99.90
13673;DHT22;6909;52.202;9.876;2022-12-07T03:41:29;2.90;99.90
13673;DHT22;6909;52.202;9.876;2022-12-07T03:43:57;3.00;99.90
13673;DHT22;6909;52.202;9.876;2022-12-07T03:46:32;3.00;99.90
13673;DHT22;6909;52.202;9.876;2022-12-07T03:49:06;3.00;99.90
13673;DHT22;6909;52.202;9.876;2022-12-07T03:51:40;3.10;99.90
13673;DHT22;6909;52.202;9.876;2022-12-07T03:54:11;3.10;99.90
13673;DHT22;6909;52.202;9.876;2022-12-07T03:56:40;3.20;99.90
13673;DHT22;6909;52.202;9.876;2022-12-07T03:59:09;3.20;99.90
13673;DHT22;6909;52.202;9.876;2022-12-07T04:01:37;3.20;99.90
13673;DHT22;6909;52.202;9.876;2022-12-07T04:04:04;3.20;99.90
13673;DHT22;6909;52.202;9.876;2022-12-07T04:06:30;3.10;99.90
13673;DHT22;6909;52.202;9.876;2022-12-07T04:08:57;3.10;99.90
13673;DHT22;6909;52.202;9.876;2022-12-07T04:11:24;3.10;99.90
13673;DHT22;6909;52.202;9.876;2022-12-07T04:13:50;3.00;99.90
13673;DHT22;6909;52.202;9.876;2022-12-07T04:16:36;3.00;99.90
13673;DHT22;6909;52.202;9.876;2022-12-07T04:19:03;3.00;99.90
13673;DHT22;6909;52.202;9.876;2022-12-07T04:21:29;3.00;99.90
13673;DHT22;6909;52.202;9.876;2022-12-07T04:23:56;2.90;99.90
13673;DHT22;6909;52.202;9.876;2022-12-07T04:26:23;3.00;99.90
13673;DHT22;6909;52.202;9.876;2022-12-07T04:28:50;2.90;99.90
13673;DHT22;6909;52.202;9.876;2022-12-07T04:31:16;3.00;99.90
13673;DHT22;6909;52.202;9.876;2022-12-07T04:33:44;3.00;99.90
13673;DHT22;6909;52.202;9.876;2022-12-07T04:36:11;3.10;99.90
13673;DHT22;6909;52.202;9.876;2022-12-07T04:38:38;3.20;99.90
13673;DHT22;6909;52.202;9.876;2022-12-07T04:41:05;3.30;99.90
13673;DHT22;6909;52.202;9.876;2022-12-07T04:43:32;3.30;99.90
13673;DHT22;6909;52.202;9.876;2022-12-07T04:45:59;3.30;99.90
13673;DHT22;6909;52.202;9.876;2022-12-07T04:48:26;3.40;99.90
13673;DHT22;6909;52.202;9.876;2022-12-07T04:50:54;3.40;99.90
13673;DHT22;6909;52.202;9.876;2022-12-07T04:53:21;3.40;99.90
13673;DHT22;6909;52.202;9.876;2022-12-07T04:55:48;3.40;99.90
13673;DHT22;6909;52.202;9.876;2022-12-07T04:58:15;3.40;99.90
13673;DHT22;6909;52.202;9.876;2022-12-07T05:00:42;3.50;99.90
13673;DHT22;6909;52.202;9.876;2022-12-07T05:03:08;3.50;99.90
13673;DHT22;6909;52.202;9.876;2022-12-07T05:05:35;3.50;99.90
13673;DHT22;6909;52.202;9.876;2022-12-07T05:08:03;3.50;99.90
13673;DHT22;6909;52.202;9.876;2022-12-07T05:10:30;3.50;99.90
13673;DHT22;6909;52.202;9.876;2022-12-07T05:12:57;3.60;99.90
13673;DHT22;6909;52.202;9.876;2022-12-07T05:15:23;3.60;99.90
13673;DHT22;6909;52.202;9.876;2022-12-07T05:17:50;3.60;99.90
13673;DHT22;6909;52.202;9.876;2022-12-07T05:20:17;3.60;99.90
13673;DHT22;6909;52.202;9.876;2022-12-07T05:22:44;3.60;99.90
13673;DHT22;6909;52.202;9.876;2022-12-07T05:25:12;3.60;99.90
13673;DHT22;6909;52.202;9.876;2022-12-07T05:27:39;3.60;99.90
13673;DHT22;6909;52.202;9.876;2022-12-07T05:30:06;3.60;99.90
13673;DHT22;6909;52.202;9.876;2022-12-07T05:32:33;3.60;99.90
13673;DHT22;6909;52.202;9.876;2022-12-07T05:35:00;3.60;99.90
13673;DHT22;6909;52.202;9.876;2022-12-07T05:37:27;3.60;99.90
13673;DHT22;6909;52.202;9.876;2022-12-07T05:39:53;3.60;99.90
13673;DHT22;6909;52.202;9.876;2022-12-07T05:42:21;3.60;99.90
13673;DHT22;6909;52.202;9.876;2022-12-07T05:44:48;3.70;99.90
13673;DHT22;6909;52.202;9.876;2022-12-07T05:47:15;3.70;99.90
13673;DHT22;6909;52.202;9.876;2022-12-07T05:49:42;3.70;99.90
13673;DHT22;6909;52.202;9.876;2022-12-07T05:52:09;3.70;99.90
13673;DHT22;6909;52.202;9.876;2022-12-07T05:54:35;3.70;99.90
13673;DHT22;6909;52.202;9.876;2022-12-07T05:57:02;3.70;99.90
13673;DHT22;6909;52.202;9.876;2022-12-07T05:59:30;3.70;99.90
13673;DHT22;6909;52.202;9.876;2022-12-07T06:01:57;3.80;99.90
13673;DHT22;6909;52.202;9.876;2022-12-07T06:04:26;3.80;99.90
13673;DHT22;6909;52.202;9.876;2022-12-07T06:06:53;3.80;99.90
13673;DHT22;6909;52.202;9.876;2022-12-07T06:09:20;3.80;99.90
13673;DHT22;6909;52.202;9.876;2022-12-07T06:11:48;3.80;99.90
13673;DHT22;6909;52.202;9.876;2022-12-07T06:14:33;3.90;99.90
13673;DHT22;6909;52.202;9.876;2022-12-07T06:17:00;3.90;99.90
13673;DHT22;6909;52.202;9.876;2022-12-07T06:19:27;3.90;99.90
13673;DHT22;6909;52.202;9.876;2022-12-07T06:21:54;3.90;99.90
13673;DHT22;6909;52.202;9.876;2022-12-07T06:24:21;4.00;99.90
13673;DHT22;6909;52.202;9.876;2022-12-07T06:26:48;3.90;99.90
13673;DHT22;6909;52.202;9.876;2022-12-07T06:29:15;4.00;99.90
13673;DHT22;6909;52.202;9.876;2022-12-07T06:31:44;4.00;99.90
13673;DHT22;6909;52.202;9.876;2022-12-07T06:34:12;3.90;99.90
13673;DHT22;6909;52.202;9.876;2022-12-07T06:36:40;4.00;99.90
13673;DHT22;6909;52.202;9.876;2022-12-07T06:39:07;4.00;99.90
13673;DHT22;6909;52.202;9.876;2022-12-07T06:41:34;4.00;99.90
13673;DHT22;6909;52.202;9.876;2022-12-07T06:44:01;4.10;99.90
13673;DHT22;6909;52.202;9.876;2022-12-07T06:46:28;4.10;99.90
13673;DHT22;6909;52.202;9.876;2022-12-07T06:48:56;4.10;99.90
13673;DHT22;6909;52.202;9.876;2022-12-07T06:51:23;4.10;99.90
13673;DHT22;6909;52.202;9.876;2022-12-07T06:53:51;4.10;99.90
13673;DHT22;6909;52.202;9.876;2022-12-07T06:56:18;4.10;99.90
13673;DHT22;6909;52.202;9.876;2022-12-07T06:58:44;4.20;99.90
13673;DHT22;6909;52.202;9.876;2022-12-07T07:01:13;4.20;99.90
13673;DHT22;6909;52.202;9.876;2022-12-07T07:03:40;4.10;99.90
13673;DHT22;6909;52.202;9.876;2022-12-07T07:06:08;4.20;99.90
13673;DHT22;6909;52.202;9.876;2022-12-07T07:08:36;4.10;99.90
13673;DHT22;6909;52.202;9.876;2022-12-07T07:11:04;4.10;99.90
13673;DHT22;6909;52.202;9.876;2022-12-07T07:13:31;4.10;99.90
13673;DHT22;6909;52.202;9.876;2022-12-07T07:15:57;4.20;99.90
13673;DHT22;6909;52.202;9.876;2022-12-07T07:18:24;4.10;99.90
13673;DHT22;6909;52.202;9.876;2022-12-07T07:20:51;4.10;99.90
13673;DHT22;6909;52.202;9.876;2022-12-07T07:23:20;4.10;99.90
13673;DHT22;6909;52.202;9.876;2022-12-07T07:25:47;4.20;99.90
13673;DHT22;6909;52.202;9.876;2022-12-07T07:28:15;4.10;99.90
13673;DHT22;6909;52.202;9.876;2022-12-07T07:30:42;4.10;99.90
13673;DHT22;6909;52.202;9.876;2022-12-07T07:33:09;4.10;99.90
13673;DHT22;6909;52.202;9.876;2022-12-07T07:35:37;4.10;99.90
13673;DHT22;6909;52.202;9.876;2022-12-07T07:38:04;4.00;99.90
13673;DHT22;6909;52.202;9.876;2022-12-07T07:40:33;4.00;99.90
13673;DHT22;6909;52.202;9.876;2022-12-07T07:42:59;4.00;99.90
13673;DHT22;6909;52.202;9.876;2022-12-07T07:45:27;4.00;99.90
13673;DHT22;6909;52.202;9.876;2022-12-07T07:47:54;4.00;99.90
13673;DHT22;6909;52.202;9.876;2022-12-07T07:50:22;4.00;99.90
13673;DHT22;6909;52.202;9.876;2022-12-07T07:52:49;4.00;99.90
13673;DHT22;6909;52.202;9.876;2022-12-07T07:55:16;4.00;99.90
13673;DHT22;6909;52.202;9.876;2022-12-07T07:57:44;3.90;99.90
13673;DHT22;6909;52.202;9.876;2022-12-07T08:00:12;4.00;99.90
13673;DHT22;6909;52.202;9.876;2022-12-07T08:02:40;3.90;99.90
13673;DHT22;6909;52.202;9.876;2022-12-07T08:05:08;4.00;99.90
13673;DHT22;6909;52.202;9.876;2022-12-07T08:07:35;3.90;99.90
13673;DHT22;6909;52.202;9.876;2022-12-07T08:10:01;4.00;99.90
13673;DHT22;6909;52.202;9.876;2022-12-07T08:12:28;4.00;99.90
13673;DHT22;6909;52.202;9.876;2022-12-07T08:14:56;4.10;99.90
13673;DHT22;6909;52.202;9.876;2022-12-07T08:17:23;4.10;99.90
13673;DHT22;6909;52.202;9.876;2022-12-07T08:19:50;4.00;99.90
13673;DHT22;6909;52.202;9.876;2022-12-07T08:22:16;4.00;99.90
13673;DHT22;6909;52.202;9.876;2022-12-07T08:24:43;4.10;99.90
13673;DHT22;6909;52.202;9.876;2022-12-07T08:27:10;4.10;99.90
13673;DHT22;6909;52.202;9.876;2022-12-07T08:29:37;4.10;99.90
13673;DHT22;6909;52.202;9.876;2022-12-07T08:32:05;4.20;99.90
13673;DHT22;6909;52.202;9.876;2022-12-07T08:34:32;4.10;99.90
13673;DHT22;6909;52.202;9.876;2022-12-07T08:36:58;4.20;99.90
13673;DHT22;6909;52.202;9.876;2022-12-07T08:39:25;4.20;99.90
13673;DHT22;6909;52.202;9.876;2022-12-07T08:41:52;4.30;99.90
13673;DHT22;6909;52.202;9.876;2022-12-07T08:44:19;4.40;99.90
13673;DHT22;6909;52.202;9.876;2022-12-07T08:46:49;4.40;99.90
13673;DHT22;6909;52.202;9.876;2022-12-07T08:49:24;4.50;99.90
13673;DHT22;6909;52.202;9.876;2022-12-07T08:51:52;4.60;99.90
13673;DHT22;6909;52.202;9.876;2022-12-07T08:54:19;4.70;99.90
13673;DHT22;6909;52.202;9.876;2022-12-07T08:56:47;4.70;99.90
13673;DHT22;6909;52.202;9.876;2022-12-07T08:59:15;4.70;99.90
13673;DHT22;6909;52.202;9.876;2022-12-07T09:01:43;4.80;99.90
13673;DHT22;6909;52.202;9.876;2022-12-07T09:04:10;4.80;99.90
13673;DHT22;6909;52.202;9.876;2022-12-07T09:06:38;4.80;99.90
13673;DHT22;6909;52.202;9.876;2022-12-07T09:09:06;4.90;99.90
13673;DHT22;6909;52.202;9.876;2022-12-07T09:11:33;5.10;99.90
13673;DHT22;6909;52.202;9.876;2022-12-07T09:14:00;5.20;99.90
13673;DHT22;6909;52.202;9.876;2022-12-07T09:16:27;5.20;99.90
13673;DHT22;6909;52.202;9.876;2022-12-07T09:18:54;5.10;99.90
13673;DHT22;6909;52.202;9.876;2022-12-07T09:21:20;5.20;99.90
13673;DHT22;6909;52.202;9.876;2022-12-07T09:23:48;5.10;99.90
13673;DHT22;6909;52.202;9.876;2022-12-07T09:26:15;5.10;99.90
13673;DHT22;6909;52.202;9.876;2022-12-07T09:28:42;5.10;99.90
13673;DHT22;6909;52.202;9.876;2022-12-07T09:31:09;5.10;99.90
13673;DHT22;6909;52.202;9.876;2022-12-07T09:33:35;5.00;99.90
13673;DHT22;6909;52.202;9.876;2022-12-07T09:36:03;5.10;99.90
13673;DHT22;6909;52.202;9.876;2022-12-07T09:38:30;5.00;99.90
13673;DHT22;6909;52.202;9.876;2022-12-07T09:41:04;5.20;99.90
13673;DHT22;6909;52.202;9.876;2022-12-07T09:43:31;5.10;99.90
13673;DHT22;6909;52.202;9.876;2022-12-07T09:45:58;5.00;99.90
13673;DHT22;6909;52.202;9.876;2022-12-07T09:48:30;5.00;99.90
13673;DHT22;6909;52.202;9.876;2022-12-07T09:50:58;5.00;99.90
13673;DHT22;6909;52.202;9.876;2022-12-07T09:53:31;4.90;99.90
13673;DHT22;6909;52.202;9.876;2022-12-07T09:56:01;4.90;99.90
13673;DHT22;6909;52.202;9.876;2022-12-07T09:58:30;5.00;99.90
13673;DHT22;6909;52.202;9.876;2022-12-07T10:00:59;5.10;99.90
13673;DHT22;6909;52.202;9.876;2022-12-07T10:03:27;5.20;99.90
13673;DHT22;6909;52.202;9.876;2022-12-07T10:05:55;5.20;99.90
13673;DHT22;6909;52.202;9.876;2022-12-07T10:08:22;5.30;99.90
13673;DHT22;6909;52.202;9.876;2022-12-07T10:10:53;5.50;99.90
13673;DHT22;6909;52.202;9.876;2022-12-07T10:13:34;5.60;99.90
13673;DHT22;6909;52.202;9.876;2022-12-07T10:16:02;5.60;99.90
13673;DHT22;6909;52.202;9.876;2022-12-07T10:18:30;5.60;99.90
13673;DHT22;6909;52.202;9.876;2022-12-07T10:21:10;5.80;99.90
13673;DHT22;6909;52.202;9.876;2022-12-07T10:23:38;5.70;99.90
13673;DHT22;6909;52.202;9.876;2022-12-07T10:26:27;5.70;99.90
13673;DHT22;6909;52.202;9.876;2022-12-07T10:28:59;5.60;99.90
13673;DHT22;6909;52.202;9.876;2022-12-07T10:31:26;5.80;99.90
13673;DHT22;6909;52.202;9.876;2022-12-07T10:33:55;5.70;99.90
13673;DHT22;6909;52.202;9.876;2022-12-07T10:36:25;5.70;99.90
13673;DHT22;6909;52.202;9.876;2022-12-07T10:38:53;5.60;99.90
13673;DHT22;6909;52.202;9.876;2022-12-07T10:41:24;5.50;99.90
13673;DHT22;6909;52.202;9.876;2022-12-07T10:43:53;5.60;99.90
13673;DHT22;6909;52.202;9.876;2022-12-07T10:52:30;5.60;99.90
13673;DHT22;6909;52.202;9.876;2022-12-07T10:55:12;5.40;99.90
13673;DHT22;6909;52.202;9.876;2022-12-07T10:57:48;5.30;99.90
13673;DHT22;6909;52.202;9.876;2022-12-07T11:00:19;5.30;99.90
13673;DHT22;6909;52.202;9.876;2022-12-07T11:03:03;5.30;99.90
13673;DHT22;6909;52.202;9.876;2022-12-07T11:05:39;5.30;99.90
13673;DHT22;6909;52.202;9.876;2022-12-07T11:08:18;5.20;99.90
13673;DHT22;6909;52.202;9.876;2022-12-07T11:10:52;5.30;99.90
13673;DHT22;6909;52.202;9.876;2022-12-07T11:13:28;5.30;99.90
13673;DHT22;6909;52.202;9.876;2022-12-07T11:16:03;5.40;99.90
13673;DHT22;6909;52.202;9.876;2022-12-07T11:18:39;5.50;99.90
13673;DHT22;6909;52.202;9.876;2022-12-07T11:21:11;5.80;99.90
13673;DHT22;6909;52.202;9.876;2022-12-07T11:23:46;6.00;99.90
13673;DHT22;6909;52.202;9.876;2022-12-07T11:26:21;5.90;99.90
13673;DHT22;6909;52.202;9.876;2022-12-07T11:29:12;5.90;99.90
13673;DHT22;6909;52.202;9.876;2022-12-07T11:31:52;5.90;99.90
13673;DHT22;6909;52.202;9.876;2022-12-07T11:34:30;5.70;99.90
13673;DHT22;6909;52.202;9.876;2022-12-07T11:37:02;5.70;99.90
13673;DHT22;6909;52.202;9.876;2022-12-07T11:39:33;5.80;99.90
13673;DHT22;6909;52.202;9.876;2022-12-07T11:42:05;5.70;99.90
13673;DHT22;6909;52.202;9.876;2022-12-07T11:44:37;5.60;99.90
13673;DHT22;6909;52.202;9.876;2022-12-07T11:47:07;5.60;99.90
13673;DHT22;6909;52.202;9.876;2022-12-07T11:49:42;5.60;99.90
13673;DHT22;6909;52.202;9.876;2022-12-07T11:52:20;5.70;99.90
13673;DHT22;6909;52.202;9.876;2022-12-07T11:54:50;5.70;99.90
13673;DHT22;6909;52.202;9.876;2022-12-07T11:57:25;5.70;99.90
13673;DHT22;6909;52.202;9.876;2022-12-07T12:13:48;5.40;99.90
13673;DHT22;6909;52.202;9.876;2022-12-07T12:16:46;5.40;99.90
13673;DHT22;6909;52.202;9.876;2022-12-07T12:19:25;5.50;99.90
13673;DHT22;6909;52.202;9.876;2022-12-07T12:21:57;5.50;99.90
13673;DHT22;6909;52.202;9.876;2022-12-07T12:24:27;5.50;99.90
13673;DHT22;6909;52.202;9.876;2022-12-07T12:26:59;5.50;99.90
13673;DHT22;6909;52.202;9.876;2022-12-07T12:29:32;5.40;99.90
13673;DHT22;6909;52.202;9.876;2022-12-07T12:32:12;5.30;99.90
13673;DHT22;6909;52.202;9.876;2022-12-07T12:34:42;5.30;99.90
13673;DHT22;6909;52.202;9.876;2022-12-07T12:37:53;5.20;99.90
13673;DHT22;6909;52.202;9.876;2022-12-07T12:40:47;5.20;99.90
13673;DHT22;6909;52.202;9.876;2022-12-07T12:46:52;5.30;99.90
13673;DHT22;6909;52.202;9.876;2022-12-07T12:49:34;5.50;99.90
13673;DHT22;6909;52.202;9.876;2022-12-07T12:52:27;5.70;99.90
13673;DHT22;6909;52.202;9.876;2022-12-07T12:54:59;6.00;99.90
13673;DHT22;6909;52.202;9.876;2022-12-07T12:57:27;6.20;99.90
13673;DHT22;6909;52.202;9.876;2022-12-07T12:59:57;6.30;99.90
13673;DHT22;6909;52.202;9.876;2022-12-07T13:02:26;6.40;99.90
13673;DHT22;6909;52.202;9.876;2022-12-07T13:04:55;6.30;99.90
13673;DHT22;6909;52.202;9.876;2022-12-07T13:07:53;6.20;99.90
13673;DHT22;6909;52.202;9.876;2022-12-07T13:10:35;6.20;99.90
13673;DHT22;6909;52.202;9.876;2022-12-07T13:13:05;6.00;99.90
13673;DHT22;6909;52.202;9.876;2022-12-07T13:15:53;5.90;99.90
13673;DHT22;6909;52.202;9.876;2022-12-07T13:18:24;5.90;99.90
13673;DHT22;6909;52.202;9.876;2022-12-07T13:20:54;5.90;99.90
13673;DHT22;6909;52.202;9.876;2022-12-07T13:23:27;5.90;99.90
13673;DHT22;6909;52.202;9.876;2022-12-07T13:26:04;6.00;99.90
13673;DHT22;6909;52.202;9.876;2022-12-07T13:28:36;6.00;99.90
13673;DHT22;6909;52.202;9.876;2022-12-07T13:31:20;6.00;99.90
13673;DHT22;6909;52.202;9.876;2022-12-07T13:33:53;5.90;99.90
13673;DHT22;6909;52.202;9.876;2022-12-07T13:36:22;5.90;99.90
13673;DHT22;6909;52.202;9.876;2022-12-07T13:38:52;5.80;99.90
13673;DHT22;6909;52.202;9.876;2022-12-07T13:41:20;5.70;99.90
13673;DHT22;6909;52.202;9.876;2022-12-07T13:44:00;6.00;99.90
13673;DHT22;6909;52.202;9.876;2022-12-07T13:46:40;5.80;99.90
13673;DHT22;6909;52.202;9.876;2022-12-07T13:49:19;5.60;99.90
13673;DHT22;6909;52.202;9.876;2022-12-07T13:51:47;5.60;99.90
13673;DHT22;6909;52.202;9.876;2022-12-07T13:54:14;5.50;99.90
13673;DHT22;6909;52.202;9.876;2022-12-07T13:56:41;5.50;99.90
13673;DHT22;6909;52.202;9.876;2022-12-07T13:59:13;5.50;99.90
13673;DHT22;6909;52.202;9.876;2022-12-07T14:01:40;5.40;99.90
13673;DHT22;6909;52.202;9.876;2022-12-07T14:04:36;5.40;99.90
13673;DHT22;6909;52.202;9.876;2022-12-07T14:07:20;5.30;99.90
13673;DHT22;6909;52.202;9.876;2022-12-07T14:09:54;5.30;99.90
13673;DHT22;6909;52.202;9.876;2022-12-07T14:12:22;5.40;99.90
13673;DHT22;6909;52.202;9.876;2022-12-07T14:14:49;5.30;99.90
13673;DHT22;6909;52.202;9.876;2022-12-07T14:17:19;5.30;99.90
13673;DHT22;6909;52.202;9.876;2022-12-07T14:19:51;5.20;99.90
13673;DHT22;6909;52.202;9.876;2022-12-07T14:22:24;5.20;99.90
13673;DHT22;6909;52.202;9.876;2022-12-07T14:24:57;5.10;99.90
13673;DHT22;6909;52.202;9.876;2022-12-07T14:27:24;5.10;99.90
13673;DHT22;6909;52.202;9.876;2022-12-07T14:29:56;5.10;99.90
13673;DHT22;6909;52.202;9.876;2022-12-07T14:32:25;5.10;99.90
13673;DHT22;6909;52.202;9.876;2022-12-07T14:35:01;5.10;99.90
13673;DHT22;6909;52.202;9.876;2022-12-07T14:37:28;5.00;99.90
13673;DHT22;6909;52.202;9.876;2022-12-07T14:39:56;5.00;99.90
13673;DHT22;6909;52.202;9.876;2022-12-07T14:42:26;5.00;99.90
13673;DHT22;6909;52.202;9.876;2022-12-07T14:44:54;4.90;99.90
13673;DHT22;6909;52.202;9.876;2022-12-07T14:47:20;4.90;99.90
13673;DHT22;6909;52.202;9.876;2022-12-07T14:49:47;4.80;99.90
13673;DHT22;6909;52.202;9.876;2022-12-07T14:52:18;4.80;99.90
13673;DHT22;6909;52.202;9.876;2022-12-07T14:54:45;4.80;99.90
13673;DHT22;6909;52.202;9.876;2022-12-07T14:57:12;4.80;99.90
13673;DHT22;6909;52.202;9.876;2022-12-07T14:59:39;4.70;99.90
13673;DHT22;6909;52.202;9.876;2022-12-07T15:02:06;4.70;99.90
13673;DHT22;6909;52.202;9.876;2022-12-07T15:04:33;4.70;99.90
13673;DHT22;6909;52.202;9.876;2022-12-07T15:07:01;4.60;99.90
13673;DHT22;6909;52.202;9.876;2022-12-07T15:09:30;4.60;99.90
13673;DHT22;6909;52.202;9.876;2022-12-07T15:11:57;4.50;99.90
13673;DHT22;6909;52.202;9.876;2022-12-07T15:14:24;4.50;99.90
13673;DHT22;6909;52.202;9.876;2022-12-07T15:16:51;4.50;99.90
13673;DHT22;6909;52.202;9.876;2022-12-07T15:19:19;4.40;99.90
13673;DHT22;6909;52.202;9.876;2022-12-07T15:21:48;4.40;99.90
13673;DHT22;6909;52.202;9.876;2022-12-07T15:24:15;4.30;99.90
13673;DHT22;6909;52.202;9.876;2022-12-07T15:26:43;4.30;99.90
13673;DHT22;6909;52.202;9.876;2022-12-07T15:29:10;4.20;99.90
13673;DHT22;6909;52.202;9.876;2022-12-07T15:31:38;4.20;99.90
13673;DHT22;6909;52.202;9.876;2022-12-07T15:34:04;4.10;99.90
13673;DHT22;6909;52.202;9.876;2022-12-07T15:36:33;4.20;99.90
13673;DHT22;6909;52.202;9.876;2022-12-07T15:39:00;4.10;99.90
13673;DHT22;6909;52.202;9.876;2022-12-07T15:41:27;4.10;99.90
13673;DHT22;6909;52.202;9.876;2022-12-07T15:43:56;4.00;99.90
13673;DHT22;6909;52.202;9.876;2022-12-07T15:46:41;3.90;99.90
13673;DHT22;6909;52.202;9.876;2022-12-07T15:49:11;3.90;99.90
13673;DHT22;6909;52.202;9.876;2022-12-07T15:51:39;3.90;99.90
13673;DHT22;6909;52.202;9.876;2022-12-07T15:54:08;3.90;99.90
13673;DHT22;6909;52.202;9.876;2022-12-07T15:56:36;3.80;99.90
13673;DHT22;6909;52.202;9.876;2022-12-07T15:59:04;3.80;99.90
13673;DHT22;6909;52.202;9.876;2022-12-07T16:01:31;3.80;99.90
13673;DHT22;6909;52.202;9.876;2022-12-07T16:03:57;3.70;99.90
13673;DHT22;6909;52.202;9.876;2022-12-07T16:06:25;3.70;99.90
13673;DHT22;6909;52.202;9.876;2022-12-07T16:08:52;3.50;99.90
13673;DHT22;6909;52.202;9.876;2022-12-07T16:11:19;3.50;99.90
13673;DHT22;6909;52.202;9.876;2022-12-07T16:13:46;3.50;99.90
13673;DHT22;6909;52.202;9.876;2022-12-07T16:16:17;3.40;99.90
13673;DHT22;6909;52.202;9.876;2022-12-07T16:18:45;3.30;99.90
13673;DHT22;6909;52.202;9.876;2022-12-07T16:21:12;3.20;99.90
13673;DHT22;6909;52.202;9.876;2022-12-07T16:23:39;3.20;99.90
13673;DHT22;6909;52.202;9.876;2022-12-07T16:26:07;3.10;99.90
13673;DHT22;6909;52.202;9.876;2022-12-07T16:28:35;3.00;99.90
13673;DHT22;6909;52.202;9.876;2022-12-07T16:31:03;3.00;99.90
13673;DHT22;6909;52.202;9.876;2022-12-07T16:33:33;2.90;99.90
13673;DHT22;6909;52.202;9.876;2022-12-07T16:36:01;2.80;99.90
13673;DHT22;6909;52.202;9.876;2022-12-07T16:38:28;2.80;99.90
13673;DHT22;6909;52.202;9.876;2022-12-07T16:40:55;2.80;99.90
13673;DHT22;6909;52.202;9.876;2022-12-07T16:43:21;2.70;99.90